CheckWX is a tool to help pilots better visualize weather data.  It is not intended as a substitute for an official pre-flight weather briefing.

07:01:47 UTC

KCSG TAF
Columbus Airport
Columbus, Georgia, USA
KCSG 170520Z 1706/1806 15004KT P6SM FEW250 FM171500 00000KT P6SM FEW030 FM171800 17006KT P6SM BKN050 TEMPO 1718/1722 3SM TSRA BKN040CB FM172300 19003KT P6SM SCT050

Jun-17@
06:00 UTC

Jun-17 @ 06:00 UTC

Jun-17@
15:00 UTC

Jun-17 @ 15:00 UTC

KCSG 170520Z 1706/1806 15004KT P6SM FEW250
Wind
  • 150° at 4 KTS
Cloud Levels
  • Few at 25,000' AGL

Jun-17@
15:00 UTC

Jun-17 @ 15:00 UTC

Jun-17@
18:00 UTC

Jun-17 @ 18:00 UTC

FM171500 00000KT P6SM FEW030

From

From Standard forecast or significant change

Cloud Levels
  • Few at 3,000' AGL

Jun-17@
18:00 UTC

Jun-17 @ 18:00 UTC

Jun-17@
22:00 UTC

Jun-17 @ 22:00 UTC

TEMPO 1718/1722 3SM TSRA BKN040CB

Temporary

Temporary Changes expected for less than half the time period

Conditions
Thunderstorm, Rain
Cloud Levels
  • Broken at 4,000' AGL

Jun-17@
18:00 UTC

Jun-17 @ 18:00 UTC

Jun-17@
23:00 UTC

Jun-17 @ 23:00 UTC

FM171800 17006KT P6SM BKN050

From

From Standard forecast or significant change

Wind
  • 170° at 6 KTS
Cloud Levels
  • Broken at 5,000' AGL

Jun-17@
23:00 UTC

Jun-17 @ 23:00 UTC

Jun-18@
06:00 UTC

Jun-18 @ 06:00 UTC

FM172300 19003KT P6SM SCT050

From

From Standard forecast or significant change

Wind
  • 190° at 3 KTS
Cloud Levels
  • Scattered at 5,000' AGL